createdAt,value
2019-03-06T00:01:39.075Z,16.90
2019-03-06T00:04:06.525Z,16.90
2019-03-06T00:06:34.028Z,16.90
2019-03-06T00:09:01.659Z,16.90
2019-03-06T00:11:29.160Z,16.90
2019-03-06T00:13:56.563Z,16.90
2019-03-06T00:16:23.967Z,16.90
2019-03-06T00:18:51.354Z,16.90
2019-03-06T00:21:18.771Z,16.90
2019-03-06T00:23:46.211Z,16.90
2019-03-06T00:26:13.624Z,16.90
2019-03-06T00:28:41.095Z,16.90
2019-03-06T00:31:09.082Z,16.90
2019-03-06T00:33:36.488Z,16.90
2019-03-06T00:36:05.633Z,16.90
2019-03-06T00:38:33.018Z,16.90
2019-03-06T00:41:22.153Z,16.90
2019-03-06T00:43:49.529Z,16.90
2019-03-06T00:46:16.924Z,16.90
2019-03-06T00:48:44.468Z,16.90
2019-03-06T00:51:11.873Z,16.90
2019-03-06T00:53:39.270Z,16.90
2019-03-06T00:56:06.705Z,16.90
2019-03-06T00:58:34.089Z,16.90
2019-03-06T01:01:01.768Z,16.90
2019-03-06T01:03:29.257Z,16.90
2019-03-06T01:05:56.682Z,16.90
2019-03-06T01:08:24.135Z,16.90
2019-03-06T01:10:51.553Z,16.90
2019-03-06T01:13:19.114Z,16.90
2019-03-06T01:15:46.502Z,16.90
2019-03-06T01:18:13.938Z,16.90
2019-03-06T01:20:41.606Z,16.90
2019-03-06T01:23:09.003Z,16.90
2019-03-06T01:25:36.431Z,16.90
2019-03-06T01:28:03.890Z,16.90
2019-03-06T01:30:31.290Z,16.90
2019-03-06T01:33:04.298Z,16.90
2019-03-06T01:35:46.958Z,16.90
2019-03-06T01:38:39.564Z,16.90
2019-03-06T01:41:34.870Z,16.90
2019-03-06T01:44:10.175Z,16.90
2019-03-06T01:46:56.527Z,16.90
2019-03-06T01:49:23.963Z,16.90
2019-03-06T01:51:51.360Z,16.90
2019-03-06T01:54:21.539Z,16.90
2019-03-06T01:56:49.033Z,16.90
2019-03-06T01:59:16.413Z,16.90
2019-03-06T02:01:44.078Z,16.90
2019-03-06T02:04:11.585Z,16.90
2019-03-06T02:06:39.094Z,16.90
2019-03-06T02:09:06.485Z,16.90
2019-03-06T02:11:33.889Z,16.90
2019-03-06T02:14:01.288Z,16.90
2019-03-06T02:16:28.743Z,16.90
2019-03-06T02:18:56.191Z,16.90
2019-03-06T02:21:23.571Z,16.90
2019-03-06T02:23:50.983Z,16.90
2019-03-06T02:26:18.376Z,16.90
2019-03-06T02:28:45.762Z,16.90
2019-03-06T02:31:13.153Z,16.90
2019-03-06T02:33:40.629Z,16.90
2019-03-06T02:36:08.145Z,16.90
2019-03-06T02:38:35.593Z,16.90
2019-03-06T02:41:02.983Z,16.90
2019-03-06T02:43:30.381Z,16.90
2019-03-06T02:45:57.773Z,16.90
2019-03-06T02:48:25.192Z,16.90
2019-03-06T02:50:52.590Z,16.90
2019-03-06T02:53:20.049Z,16.90
2019-03-06T02:55:47.490Z,16.90
2019-03-06T02:58:24.866Z,17.00
2019-03-06T03:01:11.284Z,16.90
2019-03-06T03:04:09.700Z,16.90
2019-03-06T03:06:41.061Z,16.90
2019-03-06T03:09:08.522Z,16.90
2019-03-06T03:11:35.911Z,16.90
2019-03-06T03:14:03.569Z,16.90
2019-03-06T03:16:31.026Z,16.90
2019-03-06T03:18:58.490Z,16.90
2019-03-06T03:21:27.130Z,16.90
2019-03-06T03:23:54.615Z,16.90
2019-03-06T03:26:22.085Z,16.90
2019-03-06T03:28:49.897Z,16.90
2019-03-06T03:31:17.424Z,16.90
2019-03-06T03:33:44.880Z,16.90
2019-03-06T03:36:12.373Z,16.90
2019-03-06T03:38:39.762Z,16.90
2019-03-06T03:41:07.244Z,16.90
2019-03-06T03:43:35.064Z,16.90
2019-03-06T03:46:02.447Z,16.90
2019-03-06T03:48:29.835Z,16.90
2019-03-06T03:50:57.403Z,16.90
2019-03-06T03:53:24.885Z,17.00
2019-03-06T03:55:52.361Z,16.90
2019-03-06T03:58:19.945Z,16.90
2019-03-06T04:00:47.597Z,16.90
2019-03-06T04:03:14.951Z,16.90
2019-03-06T04:05:42.438Z,16.90
2019-03-06T04:08:09.822Z,16.90
2019-03-06T04:10:37.293Z,16.90
2019-03-06T04:13:05.096Z,16.90
2019-03-06T04:15:32.490Z,16.90
2019-03-06T04:17:59.959Z,17.00
2019-03-06T04:20:27.442Z,17.00
2019-03-06T04:22:55.057Z,17.00
2019-03-06T04:25:22.443Z,17.00
2019-03-06T04:27:50.141Z,17.00
2019-03-06T04:30:17.533Z,17.00
2019-03-06T04:32:45.001Z,17.00
2019-03-06T04:35:12.482Z,17.00
2019-03-06T04:37:39.867Z,17.00
2019-03-06T04:40:07.268Z,17.00
2019-03-06T04:42:34.681Z,17.00
2019-03-06T04:45:02.078Z,17.00
2019-03-06T04:47:32.449Z,17.00
2019-03-06T04:49:59.883Z,17.00
2019-03-06T04:52:27.265Z,17.00
2019-03-06T04:54:55.021Z,17.00
2019-03-06T04:57:22.421Z,17.00
2019-03-06T04:59:49.894Z,17.00
2019-03-06T05:02:17.274Z,17.00
2019-03-06T05:04:44.752Z,17.00
2019-03-06T05:07:12.220Z,17.00
2019-03-06T05:09:39.872Z,17.00
2019-03-06T05:12:07.296Z,17.00
2019-03-06T05:14:34.676Z,17.00
2019-03-06T05:17:10.442Z,17.00
2019-03-06T05:19:37.924Z,17.00
2019-03-06T05:22:05.587Z,17.00
2019-03-06T05:24:33.077Z,17.00
2019-03-06T05:27:00.611Z,17.00
2019-03-06T05:29:27.993Z,17.00
2019-03-06T05:31:55.424Z,17.00
2019-03-06T05:34:22.803Z,17.00
2019-03-06T05:36:50.260Z,17.00
2019-03-06T05:39:17.835Z,17.00
2019-03-06T05:41:45.223Z,17.00
2019-03-06T05:44:12.608Z,17.00
2019-03-06T05:46:40.021Z,17.00
2019-03-06T05:49:07.862Z,17.00
2019-03-06T05:51:35.331Z,17.00
2019-03-06T05:54:02.815Z,17.00
2019-03-06T05:56:30.208Z,17.00
2019-03-06T05:58:57.612Z,17.00
2019-03-06T06:01:25.029Z,17.00
2019-03-06T06:03:52.437Z,17.00
2019-03-06T06:06:19.837Z,17.00
2019-03-06T06:08:47.485Z,17.00
2019-03-06T06:11:14.980Z,17.00
2019-03-06T06:13:42.385Z,17.00
2019-03-06T06:16:10.175Z,17.00
2019-03-06T06:18:37.634Z,17.00
2019-03-06T06:21:29.794Z,17.00
2019-03-06T06:24:00.206Z,17.00
2019-03-06T06:26:27.584Z,17.00
2019-03-06T06:28:55.400Z,17.00
2019-03-06T06:31:22.802Z,17.00
2019-03-06T06:33:50.192Z,17.00
2019-03-06T06:36:17.604Z,17.00
2019-03-06T06:38:45.316Z,17.00
2019-03-06T06:41:12.704Z,17.00
2019-03-06T06:43:40.178Z,17.00
2019-03-06T06:46:07.719Z,17.00
2019-03-06T06:48:35.092Z,17.00
2019-03-06T06:51:02.655Z,17.00
2019-03-06T06:53:30.064Z,17.00
2019-03-06T06:55:57.523Z,17.00
2019-03-06T06:58:31.287Z,17.00
2019-03-06T07:01:22.161Z,17.00
2019-03-06T07:04:05.120Z,17.00
2019-03-06T07:06:50.456Z,17.00
2019-03-06T07:09:36.890Z,17.00
2019-03-06T07:12:15.869Z,17.00
2019-03-06T07:15:06.162Z,17.00
2019-03-06T07:17:41.372Z,17.10
2019-03-06T07:20:21.880Z,17.10
2019-03-06T07:22:54.669Z,17.10
2019-03-06T07:25:43.754Z,17.10
2019-03-06T07:28:16.676Z,17.10
2019-03-06T07:31:04.018Z,17.10
2019-03-06T07:33:53.441Z,17.10
2019-03-06T07:36:39.839Z,17.20
2019-03-06T07:39:32.243Z,17.20
2019-03-06T07:42:29.602Z,17.10
2019-03-06T07:45:15.287Z,17.10
2019-03-06T07:48:04.375Z,17.10
2019-03-06T07:50:50.736Z,17.10
2019-03-06T07:53:42.357Z,17.10
2019-03-06T07:56:14.897Z,17.10
2019-03-06T07:58:42.299Z,17.10
2019-03-06T08:01:16.868Z,17.10
2019-03-06T08:03:38.903Z,17.10
2019-03-06T08:06:06.348Z,17.10
2019-03-06T08:08:33.781Z,17.10
2019-03-06T08:11:02.187Z,17.10
2019-03-06T08:13:34.497Z,17.10
2019-03-06T08:16:07.719Z,17.10
2019-03-06T08:18:44.864Z,17.10
2019-03-06T08:21:19.247Z,17.10
2019-03-06T08:24:02.557Z,17.10
2019-03-06T08:26:29.966Z,17.10
2019-03-06T08:28:57.401Z,17.10
2019-03-06T08:31:39.926Z,17.10
2019-03-06T08:34:07.339Z,17.10
2019-03-06T08:36:34.817Z,17.10
2019-03-06T08:39:04.259Z,17.10
2019-03-06T08:41:31.969Z,17.10
2019-03-06T08:43:59.454Z,17.10
2019-03-06T08:46:48.955Z,17.10
2019-03-06T08:49:41.352Z,17.10
2019-03-06T08:52:42.774Z,17.10
2019-03-06T08:55:32.139Z,17.10
2019-03-06T08:58:23.595Z,17.10
2019-03-06T09:01:10.080Z,17.10
2019-03-06T09:03:59.294Z,17.10
2019-03-06T09:06:45.858Z,17.10
2019-03-06T09:09:37.965Z,17.10
2019-03-06T09:12:23.008Z,17.10
2019-03-06T09:15:27.518Z,17.10
2019-03-06T09:18:15.316Z,17.10
2019-03-06T09:21:00.510Z,17.10
2019-03-06T09:23:45.470Z,17.10
2019-03-06T09:26:24.793Z,17.10
2019-03-06T09:29:09.702Z,17.10
2019-03-06T09:31:42.216Z,17.10
2019-03-06T09:34:17.848Z,17.10
2019-03-06T09:37:03.756Z,17.10
2019-03-06T09:39:50.081Z,17.10
2019-03-06T09:42:36.555Z,17.10
2019-03-06T09:45:11.574Z,17.10
2019-03-06T09:48:06.864Z,17.10
2019-03-06T09:50:46.383Z,17.10
2019-03-06T09:53:29.458Z,17.10
2019-03-06T09:56:15.896Z,17.10
2019-03-06T09:58:51.005Z,17.10
2019-03-06T10:01:37.546Z,17.10
2019-03-06T10:04:42.113Z,17.10
2019-03-06T10:07:46.682Z,17.20
2019-03-06T10:10:27.544Z,17.20
2019-03-06T10:13:20.148Z,17.20
2019-03-06T10:16:18.491Z,17.20
2019-03-06T10:19:03.271Z,17.20
2019-03-06T10:21:30.822Z,17.20
2019-03-06T10:23:58.281Z,17.20
2019-03-06T10:26:25.828Z,17.20
2019-03-06T10:28:53.603Z,17.20
2019-03-06T10:31:21.149Z,17.20
2019-03-06T10:33:48.668Z,17.20
2019-03-06T10:36:16.440Z,17.20
2019-03-06T10:38:43.906Z,17.20
2019-03-06T10:41:11.806Z,17.20
2019-03-06T10:43:39.430Z,17.20
2019-03-06T10:46:07.104Z,17.20
2019-03-06T10:48:34.572Z,17.20
2019-03-06T10:51:02.145Z,17.20
2019-03-06T10:53:29.636Z,17.20
2019-03-06T10:55:57.097Z,17.20
2019-03-06T10:58:24.604Z,17.20
2019-03-06T11:00:53.219Z,17.20
2019-03-06T11:03:20.772Z,17.20
2019-03-06T11:05:48.270Z,17.20
2019-03-06T11:08:15.763Z,17.20
2019-03-06T11:10:43.249Z,17.20
2019-03-06T11:13:10.751Z,17.20
2019-03-06T11:15:38.227Z,17.20
2019-03-06T11:18:05.689Z,17.20
2019-03-06T11:20:33.453Z,17.20
2019-03-06T11:23:01.156Z,17.20
2019-03-06T11:25:28.577Z,17.20
2019-03-06T11:27:56.091Z,17.30
2019-03-06T11:30:23.554Z,17.30
2019-03-06T11:32:54.509Z,17.30
2019-03-06T11:35:20.165Z,17.30
2019-03-06T11:37:47.638Z,17.30
2019-03-06T11:40:15.103Z,17.40
2019-03-06T11:42:42.701Z,17.30
2019-03-06T11:45:10.171Z,17.30
2019-03-06T11:47:37.574Z,17.30
2019-03-06T11:50:05.093Z,17.40
2019-03-06T11:52:34.699Z,17.40
2019-03-06T11:55:06.264Z,17.40
2019-03-06T11:57:33.149Z,17.40
2019-03-06T12:00:00.025Z,17.40
2019-03-06T12:02:27.528Z,17.40
2019-03-06T12:04:55.004Z,17.40
2019-03-06T12:07:22.837Z,17.50
2019-03-06T12:09:50.367Z,17.50
2019-03-06T12:12:17.837Z,17.50
2019-03-06T12:14:45.290Z,17.40
2019-03-06T12:17:13.913Z,17.30
2019-03-06T12:19:41.484Z,17.30
2019-03-06T12:22:08.957Z,17.30
2019-03-06T12:24:36.448Z,17.30
2019-03-06T12:27:03.922Z,17.30
2019-03-06T12:29:31.736Z,17.20
2019-03-06T12:31:59.144Z,17.20
2019-03-06T12:34:27.108Z,17.20
2019-03-06T12:36:54.594Z,17.20
2019-03-06T12:39:22.044Z,17.10
2019-03-06T12:41:49.436Z,17.10
2019-03-06T12:44:16.913Z,17.10
2019-03-06T12:46:44.440Z,17.10
2019-03-06T12:49:12.194Z,17.10
2019-03-06T12:51:39.741Z,17.10
2019-03-06T12:54:07.297Z,17.10
2019-03-06T12:56:34.807Z,17.10
2019-03-06T12:59:02.223Z,17.10
2019-03-06T13:01:29.700Z,17.10
2019-03-06T13:03:57.107Z,17.00
2019-03-06T13:06:25.210Z,17.00
2019-03-06T13:08:52.861Z,17.00
2019-03-06T13:11:20.385Z,17.00
2019-03-06T13:13:47.826Z,17.00
2019-03-06T13:16:15.296Z,17.00
2019-03-06T13:18:42.766Z,17.00
2019-03-06T13:21:10.263Z,16.90
2019-03-06T13:23:37.649Z,16.90
2019-03-06T13:26:10.213Z,16.90
2019-03-06T13:28:34.454Z,16.90
2019-03-06T13:31:02.036Z,16.90
2019-03-06T13:33:38.455Z,16.90
2019-03-06T13:36:06.329Z,16.90
2019-03-06T13:38:33.718Z,16.90
2019-03-06T13:41:01.203Z,16.90
2019-03-06T13:43:28.766Z,16.80
2019-03-06T13:45:56.331Z,16.80
2019-03-06T13:48:23.784Z,16.80
2019-03-06T13:50:51.232Z,16.80
2019-03-06T13:53:20.496Z,16.90
2019-03-06T13:55:48.052Z,16.80
2019-03-06T13:58:15.614Z,16.80
2019-03-06T14:00:43.053Z,16.80
2019-03-06T14:03:10.518Z,16.80
2019-03-06T14:05:38.028Z,16.80
2019-03-06T14:08:05.500Z,16.80
2019-03-06T14:10:33.171Z,16.80
2019-03-06T14:13:00.683Z,16.80
2019-03-06T14:15:28.178Z,16.80
2019-03-06T14:17:55.823Z,16.80
2019-03-06T14:20:23.417Z,16.80
2019-03-06T14:22:50.875Z,16.80
2019-03-06T14:25:18.487Z,16.80
2019-03-06T14:27:46.160Z,16.80
2019-03-06T14:30:13.543Z,16.80
2019-03-06T14:32:41.009Z,16.70
2019-03-06T14:35:08.484Z,16.80
2019-03-06T14:37:35.967Z,16.80
2019-03-06T14:40:09.796Z,16.80
2019-03-06T14:42:32.671Z,16.70
2019-03-06T14:45:00.316Z,16.70
2019-03-06T14:47:27.906Z,16.70
2019-03-06T14:49:55.409Z,16.70
2019-03-06T14:52:22.917Z,16.70
2019-03-06T14:54:50.428Z,16.70
2019-03-06T14:57:17.964Z,16.70
2019-03-06T14:59:45.352Z,16.50
2019-03-06T15:02:12.850Z,16.40
2019-03-06T15:04:40.296Z,16.40
2019-03-06T15:07:07.936Z,16.40
2019-03-06T15:09:35.393Z,16.30
2019-03-06T15:12:02.874Z,16.30
2019-03-06T15:14:36.012Z,16.30
2019-03-06T15:16:59.422Z,16.30
2019-03-06T15:19:26.935Z,16.20
2019-03-06T15:21:54.468Z,16.20
2019-03-06T15:24:21.942Z,16.30
2019-03-06T15:26:49.539Z,16.30
2019-03-06T15:29:16.996Z,16.30
2019-03-06T15:31:44.518Z,16.30
2019-03-06T15:34:12.110Z,16.30
2019-03-06T15:36:39.589Z,16.20
2019-03-06T15:39:07.043Z,16.20
2019-03-06T15:41:34.774Z,16.20
2019-03-06T15:44:02.273Z,16.10
2019-03-06T15:46:30.022Z,16.10
2019-03-06T15:48:57.537Z,16.10
2019-03-06T15:51:25.018Z,16.10
2019-03-06T15:53:52.509Z,16.10
2019-03-06T15:56:20.226Z,16.10
2019-03-06T15:58:47.624Z,16.10
2019-03-06T16:01:15.118Z,16.00
2019-03-06T16:03:42.582Z,16.00
2019-03-06T16:06:17.433Z,16.00
2019-03-06T16:08:39.653Z,16.00
2019-03-06T16:11:07.106Z,16.00
2019-03-06T16:13:34.582Z,16.00
2019-03-06T16:16:02.301Z,16.00
2019-03-06T16:18:30.066Z,16.00
2019-03-06T16:20:57.524Z,15.90
2019-03-06T16:23:25.401Z,15.90
2019-03-06T16:25:52.870Z,15.90
2019-03-06T16:28:20.334Z,15.90
2019-03-06T16:30:47.870Z,15.90
2019-03-06T16:33:15.305Z,15.90
2019-03-06T16:35:42.805Z,15.90
2019-03-06T16:38:10.512Z,15.90
2019-03-06T16:40:38.001Z,15.90
2019-03-06T16:43:05.481Z,15.80
2019-03-06T16:45:32.972Z,15.80
2019-03-06T16:48:00.505Z,15.80
2019-03-06T16:50:27.973Z,15.80
2019-03-06T16:52:55.577Z,15.80
2019-03-06T16:55:23.253Z,15.80
2019-03-06T16:57:50.852Z,15.80
2019-03-06T17:00:18.365Z,15.80
2019-03-06T17:02:45.961Z,15.80
2019-03-06T17:05:13.685Z,15.70
2019-03-06T17:07:41.168Z,15.70
2019-03-06T17:10:08.643Z,15.70
2019-03-06T17:12:36.153Z,15.70
2019-03-06T17:15:03.749Z,15.70
2019-03-06T17:17:31.233Z,15.70
2019-03-06T17:19:58.693Z,15.70
2019-03-06T17:22:26.218Z,15.70
2019-03-06T17:24:53.752Z,15.70
2019-03-06T17:27:21.342Z,15.70
2019-03-06T17:29:48.818Z,15.70
2019-03-06T17:32:16.347Z,15.70
2019-03-06T17:34:43.812Z,15.70
2019-03-06T17:37:11.317Z,15.70
2019-03-06T17:39:38.803Z,15.80
2019-03-06T17:42:06.517Z,15.80
2019-03-06T17:44:34.241Z,15.80
2019-03-06T17:47:01.707Z,15.90
2019-03-06T17:49:29.446Z,15.90
2019-03-06T17:51:56.943Z,15.90
2019-03-06T17:54:24.408Z,16.00
2019-03-06T17:56:52.009Z,16.00
2019-03-06T17:59:19.499Z,16.00
2019-03-06T18:01:47.072Z,16.00
2019-03-06T18:04:19.123Z,16.00
2019-03-06T18:06:46.600Z,16.00
2019-03-06T18:09:14.232Z,16.10
2019-03-06T18:11:41.634Z,16.10
2019-03-06T18:14:09.179Z,16.10
2019-03-06T18:16:37.299Z,16.10
2019-03-06T18:19:04.819Z,16.10
2019-03-06T18:21:32.308Z,16.10
2019-03-06T18:23:59.829Z,16.10
2019-03-06T18:26:27.429Z,16.10
2019-03-06T18:28:55.135Z,16.10
2019-03-06T18:31:22.628Z,16.10
2019-03-06T18:33:50.297Z,16.10
2019-03-06T18:36:17.783Z,16.20
2019-03-06T18:38:45.253Z,16.10
2019-03-06T18:41:12.743Z,16.10
2019-03-06T18:43:40.228Z,16.20
2019-03-06T18:46:07.701Z,16.20
2019-03-06T18:48:35.424Z,16.20
2019-03-06T18:51:03.210Z,16.30
2019-03-06T18:53:30.926Z,16.30
2019-03-06T18:55:58.404Z,16.30
2019-03-06T18:58:25.867Z,16.30
2019-03-06T19:00:53.365Z,16.40
2019-03-06T19:03:20.846Z,16.40
2019-03-06T19:05:48.325Z,16.40
2019-03-06T19:08:16.014Z,16.40
2019-03-06T19:10:43.492Z,16.40
2019-03-06T19:13:12.397Z,16.40
2019-03-06T19:15:40.058Z,16.40
2019-03-06T19:18:07.660Z,16.30
2019-03-06T19:20:35.136Z,16.30
2019-03-06T19:23:02.638Z,16.30
2019-03-06T19:25:31.323Z,16.20
2019-03-06T19:27:58.792Z,16.20
2019-03-06T19:30:26.301Z,16.20
2019-03-06T19:32:53.769Z,16.20
2019-03-06T19:35:21.242Z,16.20
2019-03-06T19:37:48.745Z,16.20
2019-03-06T19:40:16.209Z,16.10
2019-03-06T19:42:43.898Z,16.10
2019-03-06T19:45:11.669Z,16.10
2019-03-06T19:47:39.140Z,16.10
2019-03-06T19:50:06.623Z,16.10
2019-03-06T19:52:34.261Z,16.10
2019-03-06T19:55:01.717Z,16.10
2019-03-06T19:57:29.182Z,16.10
2019-03-06T19:59:56.774Z,16.10
2019-03-06T20:02:24.286Z,16.10
2019-03-06T20:04:51.744Z,16.10
2019-03-06T20:07:19.238Z,16.10
2019-03-06T20:09:46.739Z,16.10
2019-03-06T20:12:14.215Z,16.10
2019-03-06T20:14:41.692Z,16.10
2019-03-06T20:17:09.397Z,16.10
2019-03-06T20:19:36.913Z,16.10
2019-03-06T20:22:04.396Z,16.10
2019-03-06T20:24:31.871Z,16.10
2019-03-06T20:26:59.414Z,16.10
2019-03-06T20:29:26.875Z,16.10
2019-03-06T20:31:54.371Z,16.10
2019-03-06T20:34:21.934Z,16.10
2019-03-06T20:36:49.630Z,16.10
2019-03-06T20:39:17.126Z,16.10
2019-03-06T20:41:44.612Z,16.10
2019-03-06T20:44:12.074Z,16.10
2019-03-06T20:46:39.552Z,16.10
2019-03-06T20:49:07.100Z,16.10
2019-03-06T20:51:34.604Z,16.10
2019-03-06T20:54:02.284Z,16.10
2019-03-06T20:56:29.746Z,16.10
2019-03-06T20:58:57.879Z,16.10
2019-03-06T21:01:25.577Z,16.10
2019-03-06T21:03:53.065Z,16.10
2019-03-06T21:06:20.588Z,16.10
2019-03-06T21:08:48.051Z,16.10
2019-03-06T21:11:15.571Z,16.10
2019-03-06T21:13:43.101Z,16.10
2019-03-06T21:16:10.596Z,16.10
2019-03-06T21:18:38.424Z,16.10
2019-03-06T21:21:05.920Z,16.10
2019-03-06T21:23:33.599Z,16.10
2019-03-06T21:26:01.063Z,16.10
2019-03-06T21:28:28.570Z,16.10
2019-03-06T21:30:56.051Z,16.10
2019-03-06T21:33:23.501Z,16.10
2019-03-06T21:35:51.212Z,16.10
2019-03-06T21:38:18.656Z,16.10
2019-03-06T21:40:46.164Z,16.10
2019-03-06T21:43:13.629Z,16.10
2019-03-06T21:45:41.088Z,16.10
2019-03-06T21:48:08.618Z,16.10
2019-03-06T21:50:37.635Z,16.10
2019-03-06T21:53:05.187Z,16.10
2019-03-06T21:55:32.853Z,16.10
2019-03-06T21:58:00.375Z,16.10
2019-03-06T22:00:27.842Z,16.10
2019-03-06T22:02:55.333Z,16.10
2019-03-06T22:05:22.803Z,16.20
2019-03-06T22:07:51.123Z,16.10
2019-03-06T22:10:18.950Z,16.10
2019-03-06T22:12:46.423Z,16.10
2019-03-06T22:15:13.938Z,16.20
2019-03-06T22:17:41.412Z,16.20
2019-03-06T22:20:08.876Z,16.10
2019-03-06T22:22:36.420Z,16.20
2019-03-06T22:25:03.837Z,16.20
2019-03-06T22:27:32.224Z,16.30
2019-03-06T22:30:00.673Z,16.30
2019-03-06T22:32:28.259Z,16.30
2019-03-06T22:34:56.720Z,16.30
2019-03-06T22:37:24.440Z,16.30
2019-03-06T22:39:51.960Z,16.30
2019-03-06T22:42:19.459Z,16.30
2019-03-06T22:44:47.598Z,16.40
2019-03-06T22:47:15.060Z,16.40
2019-03-06T22:49:43.635Z,16.30
2019-03-06T22:52:11.116Z,16.30
2019-03-06T22:54:38.593Z,16.40
2019-03-06T22:57:06.056Z,16.30
2019-03-06T22:59:33.475Z,16.40
2019-03-06T23:02:01.194Z,16.40
2019-03-06T23:04:28.603Z,16.40
2019-03-06T23:06:56.064Z,16.40
2019-03-06T23:09:23.631Z,16.40
2019-03-06T23:11:51.113Z,16.40
2019-03-06T23:14:18.621Z,16.40
2019-03-06T23:16:46.083Z,16.40
2019-03-06T23:19:13.594Z,16.40
2019-03-06T23:21:41.051Z,16.40
2019-03-06T23:24:08.528Z,16.40
2019-03-06T23:26:42.741Z,16.40
2019-03-06T23:29:05.078Z,16.40
2019-03-06T23:31:32.565Z,16.50
2019-03-06T23:34:00.074Z,16.50
2019-03-06T23:36:27.555Z,16.50
2019-03-06T23:38:54.979Z,16.50
2019-03-06T23:41:22.506Z,16.50
2019-03-06T23:43:50.081Z,16.50
2019-03-06T23:46:17.575Z,16.50
2019-03-06T23:48:45.285Z,16.50
2019-03-06T23:51:26.754Z,16.50
2019-03-06T23:53:55.369Z,16.50
2019-03-06T23:56:25.889Z,16.50
2019-03-06T23:58:53.377Z,16.60
